Aviation Digital Data Service (ADDS)

Output produced by TAFs form (0315 UTC 22 April 2018)
found at http://aviationweather.gov/adds/tafs/
 
EGPH 220250Z 13001KT 6000 OVC034 09/08 Q1005
TAF EGPH 212257Z 2200/2224 VRB03KT 9999 SCT040 
     TEMPO 2200/2204 6000 SHRA 
     PROB30 
     TEMPO 2200/2203 3000 TSRA BKN008 BKN040CB 
     BECMG 2206/2209 22013KT 
     TEMPO 2210/2215 23015G25KT 7000 RA BKN014 
     PROB40 
     TEMPO 2215/2224 24015G25KT 7000 SHRA